createdAt,value
2017-03-11T00:00:17.231Z,2.55
2017-03-11T00:00:57.679Z,2.52
2017-03-11T00:01:38.085Z,2.51
2017-03-11T00:02:18.483Z,2.4
2017-03-11T00:02:58.957Z,2.39
2017-03-11T00:03:39.525Z,2.39
2017-03-11T00:04:19.939Z,2.37
2017-03-11T00:05:00.282Z,2.32
2017-03-11T00:05:40.732Z,2.28
2017-03-11T00:06:21.992Z,2.33
2017-03-11T00:07:03.012Z,2.32
2017-03-11T00:07:43.525Z,2.23
2017-03-11T00:08:23.913Z,2.23
2017-03-11T00:09:04.300Z,2.22
2017-03-11T00:10:54.528Z,2.19
2017-03-11T00:11:36.299Z,2.25
2017-03-11T00:12:19.267Z,2.25
2017-03-11T00:13:00.239Z,2.21
2017-03-11T00:13:50.203Z,2.18
2017-03-11T00:14:31.505Z,2.22
2017-03-11T00:15:11.964Z,2.21
2017-03-11T00:15:53.969Z,2.22
2017-03-11T00:16:35.803Z,2.19
2017-03-11T00:17:22.711Z,2.26
2017-03-11T00:18:04.798Z,2.19
2017-03-11T00:19:42.580Z,2.21
2017-03-11T00:20:24.790Z,2.16
2017-03-11T00:21:05.219Z,2.14
2017-03-11T00:21:45.586Z,2.16
2017-03-11T00:22:35.519Z,2.19
2017-03-11T00:23:16.342Z,2.12
2017-03-11T00:23:57.584Z,2.15
2017-03-11T00:24:39.001Z,2.14
2017-03-11T00:25:19.474Z,2.03
2017-03-11T00:26:01.410Z,2.15
2017-03-11T00:26:42.524Z,2.14
2017-03-11T00:27:30.511Z,2.01
2017-03-11T00:28:15.524Z,2.14
2017-03-11T00:28:59.826Z,2.07
2017-03-11T00:29:42.917Z,2.03
2017-03-11T00:30:29.943Z,2.12
2017-03-11T00:31:13.926Z,2.14
2017-03-11T00:31:55.129Z,2.14
2017-03-11T00:32:35.556Z,2.07
2017-03-11T00:33:16.607Z,2.1
2017-03-11T00:34:00.453Z,2.23
2017-03-11T00:34:41.679Z,2.25
2017-03-11T00:35:24.413Z,2.26
2017-03-11T00:36:04.874Z,2.43
2017-03-11T00:36:46.924Z,2.43
2017-03-11T00:37:27.320Z,2.47
2017-03-11T00:38:07.800Z,2.54
2017-03-11T00:38:48.228Z,2.51
2017-03-11T00:39:28.635Z,2.58
2017-03-11T00:40:10.007Z,2.72
2017-03-11T00:40:50.380Z,2.76
2017-03-11T00:41:30.836Z,2.83
2017-03-11T00:42:13.104Z,2.91
2017-03-11T00:42:53.522Z,3
2017-03-11T00:43:34.951Z,3.09
2017-03-11T00:44:16.222Z,3.12
2017-03-11T00:44:59.555Z,3.18
2017-03-11T00:45:39.975Z,3.34
2017-03-11T00:46:20.411Z,3.41
2017-03-11T00:47:00.830Z,3.55
2017-03-11T00:47:41.227Z,3.53
2017-03-11T00:48:24.934Z,3.66
2017-03-11T00:49:06.020Z,3.77
2017-03-11T00:49:46.430Z,3.84
2017-03-11T00:50:26.858Z,3.85
2017-03-11T00:51:07.282Z,3.88
2017-03-11T00:51:47.661Z,3.92
2017-03-11T00:52:29.110Z,3.96
2017-03-11T00:53:10.209Z,3.96
2017-03-11T00:53:50.609Z,4.04
2017-03-11T00:54:31.590Z,4.2
2017-03-11T00:55:12.042Z,4.12
2017-03-11T00:55:52.405Z,4.16
2017-03-11T00:56:32.897Z,4.27
2017-03-11T00:57:20.944Z,4.16
2017-03-11T00:58:01.301Z,4.18
2017-03-11T00:58:41.716Z,4.25
2017-03-11T00:59:22.186Z,4.2
2017-03-11T01:00:04.401Z,4.31
2017-03-11T01:00:47.405Z,4.34
2017-03-11T01:01:28.384Z,4.31
2017-03-11T01:02:09.487Z,4.4
2017-03-11T01:03:04.627Z,4.46
2017-03-11T01:03:44.998Z,4.45
2017-03-11T01:04:27.175Z,4.5
2017-03-11T01:05:08.498Z,4.58
2017-03-11T01:05:49.767Z,4.52
2017-03-11T01:06:30.180Z,4.57
2017-03-11T01:07:10.591Z,4.6
2017-03-11T01:07:51.041Z,4.63
2017-03-11T01:08:32.313Z,4.64
2017-03-11T01:09:13.286Z,4.67
2017-03-11T01:09:53.716Z,4.68
2017-03-11T01:10:35.917Z,4.67
2017-03-11T01:11:16.345Z,4.66
2017-03-11T01:11:58.434Z,4.71
2017-03-11T01:12:40.431Z,4.76
2017-03-11T01:13:20.849Z,4.74
2017-03-11T01:14:01.270Z,4.74
2017-03-11T01:14:42.429Z,4.67
2017-03-11T01:15:22.840Z,4.75
2017-03-11T01:16:03.272Z,4.66
2017-03-11T01:16:43.698Z,4.75
2017-03-11T01:17:26.076Z,4.68
2017-03-11T01:18:06.429Z,4.79
2017-03-11T01:18:46.920Z,4.76
2017-03-11T01:19:27.366Z,4.64
2017-03-11T01:20:07.800Z,4.66
2017-03-11T01:20:48.132Z,4.74
2017-03-11T01:21:28.585Z,4.67
2017-03-11T01:22:08.967Z,4.63
2017-03-11T01:22:50.094Z,4.61
2017-03-11T01:23:30.478Z,4.67
2017-03-11T01:24:11.023Z,4.61
2017-03-11T01:24:51.462Z,4.52
2017-03-11T01:25:31.876Z,4.46
2017-03-11T01:26:12.280Z,4.46
2017-03-11T01:26:52.658Z,4.4
2017-03-11T01:27:33.948Z,4.4
2017-03-11T01:28:14.922Z,4.39
2017-03-11T01:28:55.329Z,4.2
2017-03-11T01:29:35.803Z,4.22
2017-03-11T01:30:16.232Z,4.18
2017-03-11T01:30:56.601Z,4.09
2017-03-11T01:31:38.017Z,4.1
2017-03-11T01:32:18.398Z,4.02
2017-03-11T01:32:58.839Z,3.95
2017-03-11T01:33:39.263Z,3.89
2017-03-11T01:34:19.710Z,3.86
2017-03-11T01:35:00.191Z,3.77
2017-03-11T01:35:40.575Z,3.86
2017-03-11T01:36:21.030Z,3.78
2017-03-11T01:37:01.404Z,3.78
2017-03-11T01:37:42.668Z,3.71
2017-03-11T01:38:23.097Z,3.64
2017-03-11T01:39:03.492Z,3.7
2017-03-11T01:39:43.890Z,3.66
2017-03-11T01:40:24.333Z,3.55
2017-03-11T01:41:04.849Z,3.56
2017-03-11T01:41:45.279Z,3.36
2017-03-11T01:42:25.703Z,3.49
2017-03-11T01:43:06.129Z,3.41
2017-03-11T01:43:46.549Z,3.41
2017-03-11T01:44:27.539Z,3.29
2017-03-11T01:45:10.446Z,3.3
2017-03-11T01:45:50.912Z,3.26
2017-03-11T01:46:33.904Z,3.27
2017-03-11T01:47:14.451Z,3.15
2017-03-11T01:47:54.827Z,3.11
2017-03-11T01:48:35.253Z,3.21
2017-03-11T01:49:15.714Z,3.18
2017-03-11T01:49:58.628Z,3.15
2017-03-11T01:50:39.002Z,3.13
2017-03-11T01:51:19.463Z,3.06
2017-03-11T01:51:59.885Z,3.08
2017-03-11T01:52:40.285Z,3.06
2017-03-11T01:53:20.736Z,3.12
2017-03-11T01:54:02.112Z,3.08
2017-03-11T01:54:42.544Z,3.06
2017-03-11T01:55:23.527Z,3.03
2017-03-11T01:56:04.571Z,3.05
2017-03-11T01:56:44.990Z,3.01
2017-03-11T01:57:25.339Z,2.97
2017-03-11T01:58:05.754Z,2.97
2017-03-11T01:58:47.089Z,2.83
2017-03-11T01:59:27.492Z,2.91
2017-03-11T02:00:08.591Z,2.93
2017-03-11T02:00:49.065Z,2.88
2017-03-11T02:01:29.409Z,2.83
2017-03-11T02:02:09.862Z,2.87
2017-03-11T02:02:51.097Z,2.77
2017-03-11T02:03:31.585Z,2.75
2017-03-11T02:04:12.631Z,2.79
2017-03-11T02:04:54.047Z,2.7
2017-03-11T02:05:34.436Z,2.69
2017-03-11T02:06:14.858Z,2.7
2017-03-11T02:06:56.791Z,2.64
2017-03-11T02:07:37.232Z,2.57
2017-03-11T02:08:17.740Z,2.58
2017-03-11T02:08:58.230Z,2.51
2017-03-11T02:09:38.620Z,2.46
2017-03-11T02:10:19.689Z,2.58
2017-03-11T02:11:00.105Z,2.4
2017-03-11T02:11:40.545Z,2.37
2017-03-11T02:12:20.942Z,2.43
2017-03-11T02:13:01.326Z,2.37
2017-03-11T02:13:41.739Z,2.39
2017-03-11T02:14:22.168Z,2.3
2017-03-11T02:15:03.235Z,2.16
2017-03-11T02:15:43.698Z,2.21
2017-03-11T02:16:24.814Z,2.16
2017-03-11T02:17:06.202Z,2.1
2017-03-11T02:17:47.214Z,2.1
2017-03-11T02:18:28.466Z,2.05
2017-03-11T02:19:08.827Z,2.08
2017-03-11T02:19:49.229Z,2.04
2017-03-11T02:20:29.648Z,2.04
2017-03-11T02:21:10.083Z,2.01
2017-03-11T02:21:50.525Z,1.93
2017-03-11T02:22:31.162Z,1.95
2017-03-11T02:23:11.392Z,1.88
2017-03-11T02:23:51.756Z,1.89
2017-03-11T02:24:32.148Z,1.86
2017-03-11T02:25:12.632Z,2.03
2017-03-11T02:25:53.069Z,2
2017-03-11T02:26:34.663Z,2.04
2017-03-11T02:27:14.680Z,2.01
2017-03-11T02:27:56.692Z,2.04
2017-03-11T02:28:37.086Z,1.93
2017-03-11T02:29:18.302Z,2.01
2017-03-11T02:29:58.688Z,1.89
2017-03-11T02:30:39.228Z,1.93
2017-03-11T02:31:20.217Z,1.95
2017-03-11T02:32:02.298Z,1.95
2017-03-11T02:32:43.469Z,1.92
2017-03-11T02:33:24.707Z,1.92
2017-03-11T02:34:05.123Z,1.82
2017-03-11T02:34:45.533Z,1.81
2017-03-11T02:35:25.903Z,1.81
2017-03-11T02:36:07.032Z,1.85
2017-03-11T02:36:48.219Z,1.78
2017-03-11T02:37:28.726Z,1.78
2017-03-11T02:38:09.921Z,1.79
2017-03-11T02:38:50.355Z,1.7
2017-03-11T02:39:30.809Z,1.71
2017-03-11T02:40:11.303Z,1.7
2017-03-11T02:40:51.677Z,1.7
2017-03-11T02:41:32.389Z,1.7
2017-03-11T02:42:12.989Z,1.68
2017-03-11T02:42:53.416Z,1.64
2017-03-11T02:43:34.220Z,1.67
2017-03-11T02:44:14.720Z,1.63
2017-03-11T02:44:55.183Z,1.64
2017-03-11T02:45:35.472Z,1.68
2017-03-11T02:46:15.922Z,1.63
2017-03-11T02:46:56.326Z,1.58
2017-03-11T02:47:36.710Z,1.63
2017-03-11T02:48:20.565Z,1.6
2017-03-11T02:49:02.459Z,1.56
2017-03-11T02:49:43.386Z,1.53
2017-03-11T02:50:24.774Z,1.53
2017-03-11T02:51:05.173Z,1.56
2017-03-11T02:51:46.349Z,1.46
2017-03-11T02:52:26.772Z,1.48
2017-03-11T02:53:07.192Z,1.57
2017-03-11T02:53:47.580Z,1.5
2017-03-11T02:54:28.002Z,1.5
2017-03-11T02:55:08.502Z,1.58
2017-03-11T02:55:48.919Z,1.52
2017-03-11T02:56:30.184Z,1.48
2017-03-11T02:57:10.562Z,1.4
2017-03-11T02:57:50.985Z,1.46
2017-03-11T02:58:31.395Z,1.45
2017-03-11T02:59:11.776Z,1.4
2017-03-11T02:59:52.211Z,1.4
2017-03-11T03:00:32.589Z,1.38
2017-03-11T03:01:13.037Z,1.34
2017-03-11T03:01:55.076Z,1.42
2017-03-11T03:02:35.545Z,1.43
2017-03-11T03:03:17.424Z,1.32
2017-03-11T03:03:57.860Z,1.34
2017-03-11T03:04:39.735Z,1.4
2017-03-11T03:05:20.206Z,1.3
2017-03-11T03:06:00.625Z,1.4
2017-03-11T03:06:42.538Z,1.42
2017-03-11T03:07:24.420Z,1.36
2017-03-11T03:08:04.895Z,1.39
2017-03-11T03:08:45.431Z,1.34
2017-03-11T03:09:25.766Z,1.38
2017-03-11T03:10:06.268Z,1.32
2017-03-11T03:10:46.645Z,1.28
2017-03-11T03:11:27.920Z,1.32
2017-03-11T03:12:08.349Z,1.39
2017-03-11T03:12:49.220Z,1.3
2017-03-11T03:13:29.605Z,1.42
2017-03-11T03:14:10.031Z,1.45
2017-03-11T03:14:50.472Z,1.57
2017-03-11T03:15:30.910Z,1.48
2017-03-11T03:16:11.351Z,1.57
2017-03-11T03:16:53.325Z,1.46
2017-03-11T03:17:33.750Z,1.5
2017-03-11T03:18:16.089Z,1.53
2017-03-11T03:18:56.487Z,1.56
2017-03-11T03:19:36.895Z,1.53
2017-03-11T03:20:17.325Z,1.52
2017-03-11T03:20:58.605Z,1.64
2017-03-11T03:21:39.497Z,1.56
2017-03-11T03:22:19.923Z,1.56
2017-03-11T03:23:00.399Z,1.6
2017-03-11T03:23:40.804Z,1.61
2017-03-11T03:24:21.198Z,1.67
2017-03-11T03:25:01.628Z,1.7
2017-03-11T03:25:42.016Z,1.66
2017-03-11T03:26:22.462Z,1.64
2017-03-11T03:27:02.844Z,1.61
2017-03-11T03:27:43.255Z,1.67
2017-03-11T03:28:23.658Z,1.75
2017-03-11T03:29:04.066Z,1.68
2017-03-11T03:29:45.250Z,1.75
2017-03-11T03:30:25.765Z,1.67
2017-03-11T03:31:06.756Z,1.75
2017-03-11T03:31:47.179Z,1.74
2017-03-11T03:32:27.571Z,1.75
2017-03-11T03:33:07.933Z,1.75
2017-03-11T03:33:48.467Z,1.76
2017-03-11T03:34:28.918Z,1.68
2017-03-11T03:35:09.346Z,1.68
2017-03-11T03:35:50.263Z,1.68
2017-03-11T03:36:30.681Z,1.75
2017-03-11T03:37:11.067Z,1.79
2017-03-11T03:37:51.447Z,1.74
2017-03-11T03:38:31.841Z,1.78
2017-03-11T03:39:12.267Z,1.71
2017-03-11T03:39:52.697Z,1.71
2017-03-11T03:40:33.129Z,1.75
2017-03-11T03:41:13.549Z,1.79
2017-03-11T03:41:53.945Z,1.76
2017-03-11T03:42:34.347Z,1.74
2017-03-11T03:43:14.754Z,1.7
2017-03-11T03:43:55.203Z,1.71
2017-03-11T03:44:35.580Z,1.68
2017-03-11T03:45:16.021Z,1.61
2017-03-11T03:45:56.404Z,1.74
2017-03-11T03:46:36.770Z,1.63
2017-03-11T03:47:17.195Z,1.56
2017-03-11T03:47:57.654Z,1.68
2017-03-11T03:48:38.045Z,1.6
2017-03-11T03:49:18.443Z,1.56
2017-03-11T03:49:58.833Z,1.52
2017-03-11T03:50:39.232Z,1.5
2017-03-11T03:51:19.708Z,1.49
2017-03-11T03:52:00.122Z,1.43
2017-03-11T03:52:40.528Z,1.4
2017-03-11T03:53:20.934Z,1.38
2017-03-11T03:54:01.341Z,1.34
2017-03-11T03:54:41.811Z,1.34
2017-03-11T03:55:22.287Z,1.31
2017-03-11T03:56:02.711Z,1.36
2017-03-11T03:56:43.240Z,1.28
2017-03-11T03:57:24.635Z,1.34
2017-03-11T03:58:05.082Z,1.31
2017-03-11T03:58:45.427Z,1.22
2017-03-11T03:59:25.891Z,1.3
2017-03-11T04:00:06.262Z,1.13
2017-03-11T04:00:46.746Z,1.1
2017-03-11T04:01:27.163Z,1.21
2017-03-11T04:02:08.095Z,1.18
2017-03-11T04:02:48.512Z,1.14
2017-03-11T04:03:30.440Z,1.18
2017-03-11T04:04:12.463Z,1.16
2017-03-11T04:05:07.789Z,1.13
2017-03-11T04:05:50.967Z,1.13
2017-03-11T04:06:46.964Z,1.12
2017-03-11T04:07:29.028Z,0.95
2017-03-11T04:08:09.454Z,1.06
2017-03-11T04:08:51.631Z,1
2017-03-11T04:09:32.031Z,1.02
2017-03-11T04:10:12.478Z,0.89
2017-03-11T04:10:53.665Z,0.88
2017-03-11T04:11:34.057Z,0.94
2017-03-11T04:12:15.255Z,0.91
2017-03-11T04:12:55.662Z,0.84
2017-03-11T04:13:36.080Z,0.86
2017-03-11T04:14:18.431Z,0.91
2017-03-11T04:14:59.538Z,0.94
2017-03-11T04:15:42.615Z,0.86
2017-03-11T04:16:23.122Z,0.89
2017-03-11T04:17:06.953Z,0.85
2017-03-11T04:17:47.314Z,0.86
2017-03-11T04:18:28.568Z,0.94
2017-03-11T04:23:50.681Z,0.78
2017-03-11T04:24:31.271Z,0.88
2017-03-11T04:25:11.682Z,0.88
2017-03-11T04:25:52.811Z,0.84
2017-03-11T04:26:33.324Z,0.85
2017-03-11T04:27:13.695Z,0.81
2017-03-11T04:27:54.132Z,0.82
2017-03-11T04:28:35.042Z,0.84
2017-03-11T04:29:15.445Z,0.85
2017-03-11T04:29:55.879Z,0.81
2017-03-11T04:30:38.053Z,0.84
2017-03-11T04:31:19.395Z,0.7
2017-03-11T04:32:01.570Z,0.67
2017-03-11T04:32:42.900Z,0.63
2017-03-11T04:33:23.309Z,0.68
2017-03-11T04:34:03.705Z,0.67
2017-03-11T04:34:44.095Z,0.67
2017-03-11T04:35:24.486Z,0.63
2017-03-11T04:36:05.615Z,0.52
2017-03-11T04:36:46.551Z,0.51
2017-03-11T04:37:27.019Z,0.59
2017-03-11T04:38:07.610Z,0.51
2017-03-11T04:38:47.994Z,0.51
2017-03-11T04:39:29.232Z,0.49
2017-03-11T04:40:10.242Z,0.52
2017-03-11T04:40:50.622Z,0.49
2017-03-11T04:41:30.991Z,0.51
2017-03-11T04:42:11.442Z,0.45
2017-03-11T04:42:52.716Z,0.48
2017-03-11T04:43:33.107Z,0.55
2017-03-11T04:44:15.079Z,0.49
2017-03-11T04:44:55.522Z,0.59
2017-03-11T04:47:15.237Z,0.63
2017-03-11T04:47:56.409Z,0.7
2017-03-11T04:49:45.391Z,0.77
2017-03-11T04:50:25.573Z,0.82
2017-03-11T04:51:06.025Z,0.84
2017-03-11T04:51:46.438Z,0.89
2017-03-11T04:52:26.830Z,0.89
2017-03-11T04:53:07.202Z,1.03
2017-03-11T04:53:47.629Z,0.88
2017-03-11T04:54:28.079Z,0.88
2017-03-11T04:55:08.508Z,0.96
2017-03-11T04:55:48.922Z,1.03
2017-03-11T04:56:29.420Z,0.99
2017-03-11T04:57:09.788Z,1.03
2017-03-11T04:57:50.235Z,1.07
2017-03-11T04:58:30.558Z,1.16
2017-03-11T04:59:10.943Z,1.21
2017-03-11T04:59:51.420Z,1.13
2017-03-11T05:00:31.820Z,1.24
2017-03-11T05:01:12.241Z,1.28
2017-03-11T05:01:52.642Z,1.25
2017-03-11T05:02:33.053Z,1.28
2017-03-11T05:03:13.487Z,1.32
2017-03-11T05:03:53.946Z,1.31
2017-03-11T05:04:34.402Z,1.43
2017-03-11T05:05:14.792Z,1.36
2017-03-11T05:05:55.249Z,1.38
2017-03-11T05:06:35.670Z,1.4
2017-03-11T05:07:16.215Z,1.48
2017-03-11T05:07:56.986Z,1.49
2017-03-11T05:08:37.388Z,1.52
2017-03-11T05:09:17.846Z,1.57
2017-03-11T05:09:58.200Z,1.6
2017-03-11T05:10:39.556Z,1.68
2017-03-11T05:11:20.564Z,1.67
2017-03-11T05:12:01.001Z,1.64
2017-03-11T05:12:41.510Z,1.61
2017-03-11T05:13:24.909Z,1.66
2017-03-11T05:14:05.299Z,1.64
2017-03-11T05:14:45.727Z,1.68
2017-03-11T05:15:26.776Z,1.66
2017-03-11T05:16:07.136Z,1.67
2017-03-11T05:16:47.602Z,1.64
2017-03-11T05:17:31.630Z,1.7
2017-03-11T05:18:15.693Z,1.74
2017-03-11T05:18:56.143Z,1.64
2017-03-11T05:19:36.562Z,1.6
2017-03-11T05:20:16.970Z,1.56
2017-03-11T05:20:57.431Z,1.6
2017-03-11T05:21:37.788Z,1.56
2017-03-11T05:22:18.255Z,1.49
2017-03-11T05:22:58.643Z,1.4
2017-03-11T05:23:39.078Z,1.46
2017-03-11T05:24:19.448Z,1.39
2017-03-11T05:24:59.868Z,1.42
2017-03-11T05:25:40.323Z,1.36
2017-03-11T05:26:21.403Z,1.27
2017-03-11T05:27:01.887Z,1.3
2017-03-11T05:27:42.268Z,1.25
2017-03-11T05:28:22.677Z,1.24
2017-03-11T05:29:03.085Z,1.16
2017-03-11T05:29:43.500Z,1.18
2017-03-11T05:30:24.923Z,1.13
2017-03-11T05:31:05.558Z,1.1
2017-03-11T05:31:45.963Z,0.99
2017-03-11T05:32:26.328Z,0.94
2017-03-11T05:33:06.963Z,0.94
2017-03-11T05:33:47.362Z,1.02
2017-03-11T05:34:27.780Z,0.89
2017-03-11T05:35:08.178Z,0.88
2017-03-11T05:35:48.685Z,0.99
2017-03-11T05:36:29.164Z,0.85
2017-03-11T05:37:09.621Z,0.88
2017-03-11T05:37:49.970Z,0.92
2017-03-11T05:38:30.474Z,0.89
2017-03-11T05:39:10.870Z,0.81
2017-03-11T05:39:51.324Z,0.88
2017-03-11T05:40:31.703Z,0.78
2017-03-11T05:41:12.093Z,0.88
2017-03-11T05:41:52.521Z,0.89
2017-03-11T05:42:33.738Z,0.78
2017-03-11T05:43:14.166Z,0.89
2017-03-11T05:43:54.596Z,0.86
2017-03-11T05:44:35.011Z,0.92
2017-03-11T05:45:15.490Z,0.85
2017-03-11T05:45:55.905Z,0.91
2017-03-11T05:46:36.401Z,1.03
2017-03-11T05:47:16.798Z,1.03
2017-03-11T05:47:57.208Z,1.07
2017-03-11T05:48:37.634Z,1.04
2017-03-11T05:49:18.014Z,1.09
2017-03-11T05:49:58.415Z,1.09
2017-03-11T05:50:38.831Z,1.12
2017-03-11T05:51:19.231Z,1.16
2017-03-11T05:51:59.664Z,1.2
2017-03-11T05:52:40.590Z,1.25
2017-03-11T05:53:21.019Z,1.31
2017-03-11T05:54:01.427Z,1.42
2017-03-11T05:54:42.605Z,1.36
2017-03-11T05:55:23.011Z,1.43
2017-03-11T05:56:03.420Z,1.49
2017-03-11T05:56:43.844Z,1.49
2017-03-11T05:57:24.296Z,1.58
2017-03-11T05:58:04.699Z,1.58
2017-03-11T05:58:45.113Z,1.63
2017-03-11T05:59:25.515Z,1.68
2017-03-11T06:00:05.980Z,1.71
2017-03-11T06:00:47.283Z,1.71
2017-03-11T06:01:27.697Z,1.68
2017-03-11T06:02:08.103Z,1.75
2017-03-11T06:02:48.482Z,1.78
2017-03-11T06:03:28.925Z,1.76
2017-03-11T06:04:09.367Z,1.82
2017-03-11T06:04:49.755Z,1.79
2017-03-11T06:05:30.151Z,1.81
2017-03-11T06:06:11.375Z,1.85
2017-03-11T06:06:51.812Z,1.79
2017-03-11T06:07:32.869Z,1.89
2017-03-11T06:08:13.297Z,1.78
2017-03-11T06:08:53.735Z,1.85
2017-03-11T06:09:34.105Z,1.79
2017-03-11T06:10:14.505Z,1.92
2017-03-11T06:10:54.980Z,1.88
2017-03-11T06:11:35.380Z,1.81
2017-03-11T06:12:15.807Z,1.95
2017-03-11T06:12:56.267Z,1.93
2017-03-11T06:13:36.649Z,1.95
2017-03-11T06:14:17.121Z,2.01
2017-03-11T06:14:57.493Z,1.98
2017-03-11T06:15:37.915Z,2.04
2017-03-11T06:16:18.284Z,2.05
2017-03-11T06:16:58.719Z,2.08
2017-03-11T06:17:39.119Z,2.16
2017-03-11T06:18:19.517Z,2.26
2017-03-11T06:18:59.937Z,2.26
2017-03-11T06:19:40.329Z,2.22
2017-03-11T06:20:20.737Z,2.25
2017-03-11T06:21:01.166Z,2.33
2017-03-11T06:21:41.561Z,2.33
2017-03-11T06:22:21.985Z,2.36
2017-03-11T06:23:02.398Z,2.36
2017-03-11T06:23:42.830Z,2.39
2017-03-11T06:24:23.225Z,2.41
2017-03-11T06:25:03.664Z,2.39
2017-03-11T06:25:44.038Z,2.44
2017-03-11T06:26:24.403Z,2.34
2017-03-11T06:27:04.811Z,2.36
2017-03-11T06:27:45.187Z,2.44
2017-03-11T06:28:25.617Z,2.43
2017-03-11T06:29:06.006Z,2.39
2017-03-11T06:29:47.490Z,2.39
2017-03-11T06:30:27.795Z,2.4
2017-03-11T06:31:09.162Z,2.44
2017-03-11T06:31:49.579Z,2.5
2017-03-11T06:32:30.050Z,2.41
2017-03-11T06:33:10.493Z,2.55
2017-03-11T06:33:51.763Z,2.52
2017-03-11T06:34:32.196Z,2.46
2017-03-11T06:35:12.685Z,2.5
2017-03-11T06:35:53.925Z,2.55
2017-03-11T06:36:34.363Z,2.46
2017-03-11T06:37:14.785Z,2.54
2017-03-11T06:37:55.173Z,2.58
2017-03-11T06:38:35.621Z,2.54
2017-03-11T06:39:16.069Z,2.72
2017-03-11T06:39:56.489Z,2.69
2017-03-11T06:40:39.422Z,2.73
2017-03-11T06:41:20.726Z,2.88
2017-03-11T06:42:01.169Z,2.9
2017-03-11T06:42:42.284Z,3
2017-03-11T06:43:22.695Z,2.88
2017-03-11T06:44:03.746Z,3.05
2017-03-11T06:44:44.148Z,3.01
2017-03-11T06:45:24.556Z,3.09
2017-03-11T06:46:04.974Z,3.24
2017-03-11T06:46:45.480Z,3.27
2017-03-11T06:47:25.846Z,3.45
2017-03-11T06:48:06.220Z,3.36
2017-03-11T06:48:46.846Z,3.53
2017-03-11T06:49:27.205Z,3.66
2017-03-11T06:50:08.482Z,3.71
2017-03-11T06:50:50.845Z,3.7
2017-03-11T06:51:31.392Z,3.77
2017-03-11T06:52:12.144Z,3.76
2017-03-11T06:52:53.440Z,3.88
2017-03-11T06:53:33.865Z,3.92
2017-03-11T06:54:18.121Z,4.02
2017-03-11T06:55:01.124Z,3.91
2017-03-11T06:55:43.208Z,4
2017-03-11T06:56:24.564Z,4.21
2017-03-11T06:57:05.837Z,4.13
2017-03-11T06:57:46.449Z,4.2
2017-03-11T06:58:27.547Z,4.16
2017-03-11T06:59:07.923Z,4.2
2017-03-11T06:59:48.363Z,4.36
2017-03-11T07:00:28.729Z,4.42
2017-03-11T07:01:09.898Z,4.48
2017-03-11T07:01:50.443Z,4.64
2017-03-11T07:02:31.090Z,4.57
2017-03-11T07:03:11.634Z,4.67
2017-03-11T07:03:52.798Z,4.68
2017-03-11T07:04:33.331Z,4.79
2017-03-11T07:05:13.820Z,4.86
2017-03-11T07:05:54.477Z,5.02
2017-03-11T07:06:38.722Z,5.07
2017-03-11T07:07:19.210Z,5.1
2017-03-11T07:08:05.163Z,5.13
2017-03-11T07:08:48.194Z,5.25
2017-03-11T07:11:23.482Z,5.4
2017-03-11T07:12:08.477Z,5.38
2017-03-11T07:13:58.332Z,5.56
2017-03-11T07:16:13.789Z,5.64
2017-03-11T07:16:56.690Z,5.64
2017-03-11T07:17:37.111Z,5.65
2017-03-11T07:19:52.480Z,6.07
2017-03-11T07:20:33.625Z,6.19
2017-03-11T07:21:14.038Z,6.47
2017-03-11T07:21:54.438Z,6.67
2017-03-11T07:22:34.847Z,6.85
2017-03-11T07:23:15.286Z,6.96
2017-03-11T07:23:55.732Z,7.23
2017-03-11T07:24:36.176Z,7.4
2017-03-11T07:25:16.620Z,7.55
2017-03-11T07:25:57.060Z,7.84
2017-03-11T07:26:37.501Z,7.99
2017-03-11T07:27:17.927Z,8.13
2017-03-11T07:27:58.368Z,8.23
2017-03-11T07:28:38.802Z,8.35
2017-03-11T07:29:19.231Z,8.53
2017-03-11T07:29:59.675Z,8.72
2017-03-11T07:30:40.093Z,8.86
2017-03-11T07:31:20.537Z,8.96
2017-03-11T07:32:00.991Z,9.11
2017-03-11T07:32:41.420Z,9.27
2017-03-11T07:33:21.857Z,9.48
2017-03-11T07:34:02.341Z,9.56
2017-03-11T07:34:42.846Z,9.7
2017-03-11T07:35:23.369Z,9.91
2017-03-11T07:36:03.828Z,10.05
2017-03-11T07:36:44.283Z,10.12
2017-03-11T07:37:27.450Z,10.24
2017-03-11T07:38:07.847Z,10.23
2017-03-11T07:38:50.665Z,10.28
2017-03-11T07:39:31.022Z,10.24
2017-03-11T07:41:48.239Z,10.21
2017-03-11T07:42:34.282Z,10.18
2017-03-11T07:43:18.304Z,10.12
2017-03-11T07:45:35.780Z,10.48
2017-03-11T07:46:24.328Z,10.51
2017-03-11T07:47:13.561Z,10.71
2017-03-11T07:48:01.526Z,10.72
2017-03-11T07:48:48.841Z,10.71
2017-03-11T07:49:36.922Z,10.87
2017-03-11T07:51:28.506Z,11.01
2017-03-11T07:52:16.421Z,10.95
2017-03-11T07:53:05.015Z,10.84
2017-03-11T07:54:54.575Z,10.57
2017-03-11T07:56:45.007Z,10.28
2017-03-11T07:57:33.228Z,10.25
2017-03-11T07:59:23.331Z,10.05
2017-03-11T08:00:09.498Z,9.9
2017-03-11T08:00:57.560Z,9.88
2017-03-11T08:01:46.486Z,9.82
2017-03-11T08:02:34.525Z,9.72
2017-03-11T08:03:22.746Z,9.72
2017-03-11T08:04:11.771Z,9.7
2017-03-11T08:06:33.677Z,9.51
2017-03-11T08:08:25.367Z,9.45
2017-03-11T08:10:15.482Z,9.34
2017-03-11T08:12:36.855Z,9.13
2017-03-11T08:13:25.206Z,9.03
2017-03-11T08:14:14.469Z,8.99
2017-03-11T08:15:06.726Z,8.93
2017-03-11T08:17:32.162Z,8.79
2017-03-11T08:18:20.052Z,8.84
2017-03-11T08:20:41.278Z,8.89
2017-03-11T08:21:30.254Z,8.78
2017-03-11T08:23:53.227Z,8.75
2017-03-11T08:24:41.887Z,8.68
2017-03-11T08:25:33.536Z,8.71
2017-03-11T08:27:54.795Z,8.42
2017-03-11T08:30:18.476Z,8.28
2017-03-11T08:31:04.154Z,8.2
2017-03-11T08:33:25.541Z,8.21
2017-03-11T08:34:14.611Z,8.2
2017-03-11T08:35:02.765Z,8.31
2017-03-11T08:35:51.217Z,8.23
2017-03-11T08:36:39.620Z,8.23
2017-03-11T08:37:28.123Z,8.2
2017-03-11T08:38:16.527Z,8.28
2017-03-11T08:39:04.252Z,8.23
2017-03-11T08:39:53.022Z,8.23
2017-03-11T08:40:41.425Z,8.18
2017-03-11T08:42:31.681Z,8.26
2017-03-11T08:43:18.089Z,8.35
2017-03-11T08:44:07.083Z,8.45
2017-03-11T08:44:55.741Z,8.45
2017-03-11T08:45:44.175Z,8.54
2017-03-11T08:46:32.455Z,8.56
2017-03-11T08:47:21.462Z,8.63
2017-03-11T08:48:09.669Z,8.74
2017-03-11T08:48:58.475Z,8.84
2017-03-11T08:49:48.851Z,8.97
2017-03-11T08:50:34.590Z,9.08
2017-03-11T08:51:16.011Z,9.34
2017-03-11T08:51:57.103Z,9.4
2017-03-11T08:52:38.330Z,9.54
2017-03-11T08:53:19.355Z,9.73
2017-03-11T08:53:59.764Z,9.82
2017-03-11T08:54:40.191Z,9.84
2017-03-11T08:55:20.677Z,9.9
2017-03-11T08:56:02.159Z,9.97
2017-03-11T08:56:42.424Z,10.03
2017-03-11T08:57:23.021Z,9.92
2017-03-11T08:58:03.830Z,10
2017-03-11T08:58:46.980Z,10.07
2017-03-11T08:59:27.975Z,10.09
2017-03-11T09:00:09.180Z,10.07
2017-03-11T09:00:49.656Z,10.1
2017-03-11T09:01:30.926Z,10.06
2017-03-11T09:02:11.371Z,10.02
2017-03-11T09:02:52.023Z,9.97
2017-03-11T09:03:32.933Z,10.09
2017-03-11T09:04:13.432Z,10.13
2017-03-11T09:04:54.322Z,10.18
2017-03-11T09:05:34.777Z,10.28
2017-03-11T09:06:15.211Z,10.2
2017-03-11T09:06:56.016Z,10.3
2017-03-11T09:07:36.483Z,10.36
2017-03-11T09:08:23.445Z,10.45
2017-03-11T09:09:03.869Z,10.57
2017-03-11T09:09:45.049Z,10.68
2017-03-11T09:10:25.512Z,10.9
2017-03-11T09:11:06.650Z,11.01
2017-03-11T09:11:47.155Z,11.27
2017-03-11T09:12:27.583Z,11.38
2017-03-11T09:13:08.014Z,11.52
2017-03-11T09:13:48.366Z,11.4
2017-03-11T09:14:29.593Z,11.41
2017-03-11T09:15:10.608Z,11.45
2017-03-11T09:15:51.061Z,11.45
2017-03-11T09:16:31.483Z,11.48
2017-03-11T09:17:11.835Z,11.68
2017-03-11T09:17:52.446Z,11.89
2017-03-11T09:18:32.881Z,12.2
2017-03-11T09:19:13.332Z,12.3
2017-03-11T09:19:53.759Z,12.63
2017-03-11T09:20:34.138Z,12.88
2017-03-11T09:21:14.544Z,13.49
2017-03-11T09:21:55.024Z,14.15
2017-03-11T09:22:37.372Z,14.66
2017-03-11T09:23:17.772Z,15.1
2017-03-11T09:23:58.395Z,15.47
2017-03-11T09:24:39.001Z,15.72
2017-03-11T09:25:19.696Z,15.83
2017-03-11T09:26:00.061Z,15.81
2017-03-11T09:26:40.572Z,15.73
2017-03-11T09:27:21.845Z,15.69
2017-03-11T09:28:04.152Z,15.52
2017-03-11T09:28:48.423Z,15.32
2017-03-11T09:29:30.577Z,15.14
2017-03-11T09:30:11.056Z,14.89
2017-03-11T09:30:52.440Z,14.55
2017-03-11T09:31:34.458Z,14.38
2017-03-11T09:32:14.938Z,14.19
2017-03-11T09:32:55.419Z,14.15
2017-03-11T09:33:36.276Z,14.04
2017-03-11T09:34:17.201Z,13.93
2017-03-11T09:34:58.993Z,13.94
2017-03-11T09:35:39.904Z,13.95
2017-03-11T09:36:20.787Z,14.08
2017-03-11T09:37:01.637Z,14.12
2017-03-11T09:37:44.501Z,14.08
2017-03-11T09:38:25.741Z,14.15
2017-03-11T09:39:06.152Z,14.12
2017-03-11T09:39:48.190Z,14.11
2017-03-11T09:40:28.889Z,14.08
2017-03-11T09:41:09.335Z,14.05
2017-03-11T09:41:51.443Z,13.82
2017-03-11T09:42:31.970Z,13.91
2017-03-11T09:43:12.417Z,13.86
2017-03-11T09:43:52.839Z,13.79
2017-03-11T09:44:33.335Z,13.78
2017-03-11T09:45:13.688Z,13.85
2017-03-11T09:45:54.153Z,13.86
2017-03-11T09:46:34.668Z,13.97
2017-03-11T09:47:16.673Z,13.95
2017-03-11T09:47:57.149Z,14.11
2017-03-11T09:48:38.495Z,14.26
2017-03-11T09:49:19.240Z,14.49
2017-03-11T09:49:59.635Z,14.7
2017-03-11T09:50:40.596Z,14.78